createdAt,value
2023-04-22T00:01:31.778Z,13.02
2023-04-22T00:03:05.220Z,13.70
2023-04-22T00:04:39.799Z,13.90
2023-04-22T00:06:12.978Z,12.25
2023-04-22T00:07:46.078Z,15.60
2023-04-22T00:09:19.212Z,12.40
2023-04-22T00:10:52.258Z,13.70
2023-04-22T00:12:24.379Z,12.50
2023-04-22T00:13:57.374Z,13.65
2023-04-22T00:15:30.570Z,13.57
2023-04-22T00:17:03.746Z,11.00
2023-04-22T00:18:37.120Z,12.35
2023-04-22T00:20:11.657Z,12.40
2023-04-22T00:21:44.654Z,12.32
2023-04-22T00:23:17.712Z,11.43
2023-04-22T00:24:50.609Z,13.85
2023-04-22T00:26:23.642Z,11.70
2023-04-22T00:27:55.632Z,12.50
2023-04-22T00:29:28.631Z,11.73
2023-04-22T00:31:03.378Z,10.27
2023-04-22T00:32:35.518Z,10.40
2023-04-22T00:34:08.489Z,13.90
2023-04-22T00:35:42.776Z,11.32
2023-04-22T00:37:14.729Z,11.15
2023-04-22T00:38:51.093Z,11.57
2023-04-22T00:40:24.180Z,10.85
2023-04-22T00:41:57.164Z,14.27
2023-04-22T00:43:30.159Z,10.52
2023-04-22T00:45:03.644Z,12.63
2023-04-22T00:46:38.109Z,12.05
2023-04-22T00:48:11.135Z,13.40
2023-04-22T00:49:44.857Z,12.00
2023-04-22T00:51:19.348Z,10.27
2023-04-22T00:52:52.270Z,10.07
2023-04-22T00:54:25.256Z,13.77
2023-04-22T00:55:58.382Z,11.90
2023-04-22T00:57:31.070Z,13.05
2023-04-22T00:59:04.283Z,14.50
2023-04-22T01:00:36.569Z,9.65
2023-04-22T01:02:09.847Z,12.77
2023-04-22T01:05:17.551Z,11.38
2023-04-22T01:06:52.049Z,11.55
2023-04-22T01:08:28.912Z,12.50
2023-04-22T01:10:00.964Z,9.23
2023-04-22T01:11:34.740Z,11.98
2023-04-22T01:13:06.805Z,12.43
2023-04-22T01:14:40.669Z,13.65
2023-04-22T01:16:14.662Z,12.73
2023-04-22T01:17:47.880Z,12.75
2023-04-22T01:20:53.027Z,11.98
2023-04-22T01:22:29.587Z,12.35
2023-04-22T01:24:04.250Z,10.98
2023-04-22T01:25:37.218Z,10.05
2023-04-22T01:27:10.657Z,10.35
2023-04-22T01:30:17.093Z,12.85
2023-04-22T01:31:50.608Z,15.05
2023-04-22T01:33:23.738Z,12.38
2023-04-22T01:34:55.985Z,13.18
2023-04-22T01:36:29.303Z,10.20
2023-04-22T01:39:36.582Z,13.38
2023-04-22T01:41:09.001Z,13.68
2023-04-22T01:42:42.530Z,13.45
2023-04-22T01:44:16.280Z,14.40
2023-04-22T01:45:49.261Z,16.35
2023-04-22T01:47:22.198Z,13.15
2023-04-22T01:48:55.188Z,11.45
2023-04-22T01:50:28.560Z,11.68
2023-04-22T01:53:33.416Z,12.00
2023-04-22T01:55:09.814Z,15.45
2023-04-22T01:56:44.073Z,13.75
2023-04-22T01:58:17.127Z,16.40
2023-04-22T01:59:50.048Z,16.85
2023-04-22T02:01:22.055Z,15.23
2023-04-22T02:02:55.080Z,17.98
2023-04-22T02:04:28.176Z,16.38
2023-04-22T02:06:01.379Z,13.48
2023-04-22T02:07:34.445Z,15.15
2023-04-22T02:09:07.624Z,13.98
2023-04-22T02:10:41.084Z,14.27
2023-04-22T02:12:13.970Z,14.15
2023-04-22T02:13:46.022Z,11.13
2023-04-22T02:15:19.040Z,11.65
2023-04-22T02:16:52.703Z,13.05
2023-04-22T02:18:25.691Z,11.52
2023-04-22T02:19:58.829Z,11.88
2023-04-22T02:21:32.971Z,10.18
2023-04-22T02:23:05.362Z,14.38
2023-04-22T02:24:38.484Z,15.18
2023-04-22T02:26:12.716Z,12.48
2023-04-22T02:27:45.829Z,19.45
2023-04-22T02:29:17.790Z,14.55
2023-04-22T02:30:50.755Z,14.05
2023-04-22T02:32:23.896Z,11.68
2023-04-22T02:33:56.009Z,15.43
2023-04-22T02:35:28.973Z,15.98
2023-04-22T02:37:01.002Z,15.15
2023-04-22T02:38:33.946Z,14.25
2023-04-22T02:40:07.512Z,14.35
2023-04-22T02:41:41.846Z,15.90
2023-04-22T02:43:14.747Z,15.70
2023-04-22T02:44:46.699Z,13.57
2023-04-22T02:46:19.724Z,16.77
2023-04-22T02:47:52.696Z,16.13
2023-04-22T02:49:25.699Z,14.13
2023-04-22T02:50:58.752Z,15.02
2023-04-22T02:52:30.680Z,14.65
2023-04-22T02:54:03.717Z,11.60
2023-04-22T02:55:36.039Z,10.70
2023-04-22T02:57:10.393Z,12.48
2023-04-22T02:58:43.331Z,11.10
2023-04-22T03:00:15.986Z,14.35
2023-04-22T03:01:48.977Z,12.02
2023-04-22T03:03:22.248Z,12.38
2023-04-22T03:04:55.356Z,16.48
2023-04-22T03:06:28.325Z,10.60
2023-04-22T03:08:01.369Z,11.55
2023-04-22T03:09:33.307Z,12.30
2023-04-22T03:11:06.543Z,12.05
2023-04-22T03:12:40.837Z,12.32
2023-04-22T03:14:13.873Z,14.07
2023-04-22T03:15:46.862Z,13.50
2023-04-22T03:17:19.678Z,11.80
2023-04-22T03:18:52.958Z,14.02
2023-04-22T03:20:24.978Z,11.75
2023-04-22T03:21:59.255Z,9.65
2023-04-22T03:23:32.682Z,11.02
2023-04-22T03:25:06.343Z,12.57
2023-04-22T03:26:39.475Z,11.48
2023-04-22T03:28:12.797Z,11.52
2023-04-22T03:31:18.872Z,13.00
2023-04-22T03:32:53.530Z,13.45
2023-04-22T03:34:25.664Z,13.90
2023-04-22T03:35:59.466Z,12.82
2023-04-22T03:37:32.452Z,11.93
2023-04-22T03:39:06.010Z,12.60
2023-04-22T03:40:38.948Z,13.18
2023-04-22T03:42:12.308Z,11.93
2023-04-22T03:45:18.628Z,14.80
2023-04-22T03:46:51.891Z,11.98
2023-04-22T03:48:24.612Z,12.43
2023-04-22T03:49:58.507Z,15.05
2023-04-22T03:51:31.458Z,12.75
2023-04-22T03:53:04.408Z,12.07
2023-04-22T03:54:37.878Z,15.60
2023-04-22T03:56:10.058Z,12.43
2023-04-22T03:57:43.178Z,12.13
2023-04-22T03:59:17.314Z,16.02
2023-04-22T04:00:50.252Z,14.02
2023-04-22T04:02:23.345Z,14.10
2023-04-22T04:03:56.522Z,14.70
2023-04-22T04:07:03.087Z,12.55
2023-04-22T04:10:09.943Z,15.63
2023-04-22T04:11:42.902Z,14.75
2023-04-22T04:13:15.935Z,13.48
2023-04-22T04:14:49.212Z,17.15
2023-04-22T04:16:22.296Z,15.65
2023-04-22T04:17:56.191Z,15.80
2023-04-22T04:19:29.225Z,15.05
2023-04-22T04:21:02.114Z,18.55
2023-04-22T04:22:35.220Z,15.13
2023-04-22T04:24:08.618Z,17.58
2023-04-22T04:27:16.635Z,18.20
2023-04-22T04:28:50.048Z,18.30
2023-04-22T04:31:58.582Z,18.27
2023-04-22T04:33:32.446Z,15.25
2023-04-22T04:35:06.175Z,15.15
2023-04-22T04:36:39.880Z,17.10
2023-04-22T04:38:14.377Z,12.40
2023-04-22T04:39:48.470Z,12.88
2023-04-22T04:41:21.863Z,13.32
2023-04-22T04:44:31.726Z,13.45
2023-04-22T04:46:06.319Z,13.48
2023-04-22T04:47:39.510Z,11.48
2023-04-22T04:49:12.941Z,12.27
2023-04-22T04:50:45.979Z,11.95
2023-04-22T04:52:19.127Z,13.13
2023-04-22T04:53:52.105Z,11.85
2023-04-22T04:55:25.129Z,12.32
2023-04-22T04:56:58.529Z,9.93
2023-04-22T05:00:05.017Z,11.80
2023-04-22T05:01:40.001Z,11.85
2023-04-22T05:03:12.092Z,11.68
2023-04-22T05:04:45.424Z,12.15
2023-04-22T05:07:51.727Z,10.13
2023-04-22T05:10:57.492Z,11.13
2023-04-22T05:12:30.497Z,15.82
2023-04-22T05:14:03.910Z,14.38
2023-04-22T05:17:11.130Z,14.07
2023-04-22T05:18:44.326Z,13.48
2023-04-22T05:20:17.301Z,12.02
2023-04-22T05:21:49.226Z,14.05
2023-04-22T05:23:22.148Z,11.90
2023-04-22T05:24:55.051Z,9.50
2023-04-22T05:26:27.962Z,11.50
2023-04-22T05:28:00.823Z,10.68
2023-04-22T05:29:33.852Z,16.25
2023-04-22T05:31:06.827Z,11.75
2023-04-22T05:32:41.183Z,12.18
2023-04-22T05:34:14.322Z,11.30
2023-04-22T05:35:47.396Z,14.35
2023-04-22T05:37:20.486Z,11.32
2023-04-22T05:38:53.606Z,11.40
2023-04-22T05:40:26.555Z,13.85
2023-04-22T05:41:59.652Z,10.38
2023-04-22T05:43:32.823Z,11.48
2023-04-22T05:45:06.692Z,12.75
2023-04-22T05:46:39.977Z,10.52
2023-04-22T05:49:47.043Z,11.52
2023-04-22T05:51:20.176Z,10.02
2023-04-22T05:52:53.091Z,12.23
2023-04-22T05:54:26.132Z,14.45
2023-04-22T05:55:59.181Z,11.57
2023-04-22T05:57:33.223Z,11.18
2023-04-22T05:59:06.248Z,13.45
2023-04-22T06:00:39.224Z,13.93
2023-04-22T06:02:12.184Z,11.70
2023-04-22T06:03:46.800Z,12.80
2023-04-22T06:05:21.139Z,12.50
2023-04-22T06:06:57.446Z,12.02
2023-04-22T06:08:32.150Z,9.82
2023-04-22T06:10:08.937Z,11.65
2023-04-22T06:12:01.071Z,13.18
2023-04-22T06:13:34.014Z,12.63
2023-04-22T06:15:08.135Z,12.75
2023-04-22T06:16:44.555Z,11.07
2023-04-22T06:18:17.538Z,13.25
2023-04-22T06:19:59.143Z,11.98
2023-04-22T06:21:44.467Z,10.10
2023-04-22T06:23:22.585Z,9.20
2023-04-22T06:25:01.638Z,11.73
2023-04-22T06:26:38.022Z,11.27
2023-04-22T06:28:18.440Z,10.45
2023-04-22T06:29:51.458Z,10.80
2023-04-22T06:31:30.031Z,12.60
2023-04-22T06:33:03.162Z,9.88
2023-04-22T06:34:36.190Z,11.27
2023-04-22T06:36:17.949Z,8.85
2023-04-22T06:37:51.009Z,10.45
2023-04-22T06:39:43.107Z,12.52
2023-04-22T06:41:19.414Z,8.63
2023-04-22T06:42:55.500Z,10.05
2023-04-22T06:44:28.861Z,10.23
2023-04-22T06:47:41.052Z,9.00
2023-04-22T06:49:14.033Z,10.13
2023-04-22T06:50:46.950Z,8.75
2023-04-22T06:52:23.494Z,9.52
2023-04-22T06:53:58.244Z,11.48
2023-04-22T06:55:31.284Z,16.95
2023-04-22T06:57:04.273Z,9.05
2023-04-22T06:58:37.262Z,12.52
2023-04-22T07:00:19.643Z,12.75
2023-04-22T07:01:52.647Z,10.75
2023-04-22T07:03:26.006Z,9.60
2023-04-22T07:04:59.145Z,9.45
2023-04-22T07:06:32.907Z,10.50
2023-04-22T07:08:07.201Z,9.70
2023-04-22T07:09:40.613Z,8.95
2023-04-22T07:11:14.426Z,9.88
2023-04-22T07:12:47.531Z,6.93
2023-04-22T07:14:20.568Z,9.00
2023-04-22T07:15:52.844Z,10.50
2023-04-22T07:17:25.848Z,10.47
2023-04-22T07:18:59.598Z,7.60
2023-04-22T07:20:32.519Z,7.65
2023-04-22T07:22:06.805Z,8.30
2023-04-22T07:23:41.168Z,7.60
2023-04-22T07:25:14.121Z,8.38
2023-04-22T07:26:47.052Z,9.55
2023-04-22T07:28:20.080Z,8.48
2023-04-22T07:29:53.027Z,10.23
2023-04-22T07:31:26.030Z,8.05
2023-04-22T07:32:59.093Z,8.57
2023-04-22T07:34:35.328Z,9.98
2023-04-22T07:36:08.523Z,10.25
2023-04-22T07:39:15.601Z,9.38
2023-04-22T07:40:48.854Z,8.23
2023-04-22T07:43:55.337Z,7.28
2023-04-22T07:45:28.382Z,8.10
2023-04-22T07:47:01.668Z,8.95
2023-04-22T07:50:08.545Z,8.35
2023-04-22T07:51:41.789Z,9.23
2023-04-22T07:54:51.125Z,9.07
2023-04-22T07:56:24.069Z,9.43
2023-04-22T07:57:56.983Z,10.70
2023-04-22T07:59:29.917Z,10.07
2023-04-22T08:01:02.922Z,8.52
2023-04-22T08:02:36.063Z,9.38
2023-04-22T08:04:09.416Z,10.57
2023-04-22T08:05:42.533Z,10.38
2023-04-22T08:07:32.624Z,7.40
2023-04-22T08:09:07.114Z,10.77
2023-04-22T08:10:41.404Z,8.48
2023-04-22T08:12:15.381Z,11.73
2023-04-22T08:13:48.296Z,8.05
2023-04-22T08:15:21.264Z,10.55
2023-04-22T08:16:54.242Z,8.90
2023-04-22T08:18:27.193Z,8.15
2023-04-22T08:20:00.187Z,9.13
2023-04-22T08:21:33.121Z,9.45
2023-04-22T08:23:07.140Z,7.18
2023-04-22T08:24:40.205Z,9.15
2023-04-22T08:26:16.240Z,8.18
2023-04-22T08:27:49.219Z,11.63
2023-04-22T08:29:22.523Z,10.27
2023-04-22T08:30:55.529Z,7.72
2023-04-22T08:32:28.601Z,7.97
2023-04-22T08:34:01.654Z,9.60
2023-04-22T08:35:36.795Z,8.07
2023-04-22T08:37:09.841Z,11.30
2023-04-22T08:38:41.920Z,10.30
2023-04-22T08:40:15.189Z,9.73
2023-04-22T08:43:24.010Z,6.72
2023-04-22T08:44:58.256Z,8.40
2023-04-22T08:46:32.586Z,7.78
2023-04-22T08:48:07.074Z,7.10
2023-04-22T08:49:41.046Z,8.30
2023-04-22T08:51:15.360Z,11.27
2023-04-22T08:52:48.422Z,8.93
2023-04-22T08:54:21.349Z,8.57
2023-04-22T08:55:57.669Z,6.95
2023-04-22T08:57:32.566Z,10.30
2023-04-22T08:59:06.184Z,7.70
2023-04-22T09:00:40.220Z,8.95
2023-04-22T09:02:18.303Z,9.10
2023-04-22T09:03:51.725Z,9.15
2023-04-22T09:05:27.823Z,7.93
2023-04-22T09:07:03.005Z,9.05
2023-04-22T09:08:36.396Z,6.88
2023-04-22T09:10:11.857Z,9.85
2023-04-22T09:11:44.920Z,9.43
2023-04-22T09:13:20.141Z,8.13
2023-04-22T09:16:54.658Z,8.45
2023-04-22T09:18:27.642Z,7.63
2023-04-22T09:20:00.723Z,7.90
2023-04-22T09:21:34.851Z,8.52
2023-04-22T09:23:07.910Z,10.75
2023-04-22T09:24:44.140Z,7.80
2023-04-22T09:26:18.478Z,8.20
2023-04-22T09:27:52.021Z,8.55
2023-04-22T09:29:31.491Z,7.43
2023-04-22T09:31:04.709Z,7.43
2023-04-22T09:34:10.772Z,9.18
2023-04-22T09:35:44.750Z,7.05
2023-04-22T09:37:20.384Z,8.10
2023-04-22T09:38:55.108Z,8.52
2023-04-22T09:40:28.648Z,6.43
2023-04-22T09:42:01.625Z,6.63
2023-04-22T09:43:34.530Z,6.00
2023-04-22T09:45:09.889Z,7.07
2023-04-22T09:46:43.933Z,8.55
2023-04-22T09:48:19.592Z,9.18
2023-04-22T09:49:52.562Z,7.45
2023-04-22T09:51:27.369Z,9.45
2023-04-22T09:53:02.108Z,7.63
2023-04-22T09:54:35.064Z,8.25
2023-04-22T09:56:08.721Z,8.90
2023-04-22T09:57:40.725Z,7.95
2023-04-22T09:59:13.919Z,7.13
2023-04-22T10:02:30.572Z,8.85
2023-04-22T10:04:02.997Z,5.50
2023-04-22T10:05:37.713Z,8.23
2023-04-22T10:07:10.792Z,7.20
2023-04-22T10:08:45.889Z,7.53
2023-04-22T10:10:18.909Z,6.35
2023-04-22T10:11:53.962Z,8.13
2023-04-22T10:13:27.169Z,7.10
2023-04-22T10:16:35.721Z,5.88
2023-04-22T10:18:11.790Z,7.53
2023-04-22T10:19:48.744Z,6.95
2023-04-22T10:21:22.905Z,7.03
2023-04-22T10:22:57.882Z,7.00
2023-04-22T10:24:35.571Z,7.15
2023-04-22T10:26:08.553Z,6.70
2023-04-22T10:27:41.645Z,7.13
2023-04-22T10:30:50.323Z,6.57
2023-04-22T10:32:28.512Z,8.25
2023-04-22T10:34:11.693Z,5.35
2023-04-22T10:36:11.587Z,5.93
2023-04-22T10:37:46.104Z,6.32
2023-04-22T10:39:18.260Z,11.77
2023-04-22T10:41:00.125Z,8.32
2023-04-22T10:42:33.122Z,9.90
2023-04-22T10:44:08.370Z,7.10
2023-04-22T10:45:41.282Z,9.10
2023-04-22T10:47:25.397Z,6.50
2023-04-22T10:49:00.053Z,7.32
2023-04-22T10:50:33.631Z,6.45
2023-04-22T10:52:09.389Z,7.32
2023-04-22T10:53:43.806Z,6.15
2023-04-22T10:55:17.285Z,8.07
2023-04-22T10:57:02.850Z,11.13
2023-04-22T10:58:35.842Z,6.03
2023-04-22T11:02:09.112Z,6.60
2023-04-22T11:03:42.251Z,4.95
2023-04-22T11:07:30.749Z,7.22
2023-04-22T11:09:12.955Z,7.82
2023-04-22T11:10:47.646Z,5.78
2023-04-22T11:12:43.251Z,5.07
2023-04-22T11:14:16.832Z,6.35
2023-04-22T11:15:51.511Z,5.93
2023-04-22T11:17:23.715Z,6.40
2023-04-22T11:18:57.684Z,7.90
2023-04-22T11:20:31.166Z,5.45
2023-04-22T11:22:04.130Z,6.63
2023-04-22T11:23:37.086Z,7.05
2023-04-22T11:25:10.709Z,5.68
2023-04-22T11:26:43.623Z,4.25
2023-04-22T11:28:16.554Z,4.55
2023-04-22T11:30:01.395Z,4.93
2023-04-22T11:31:36.132Z,4.97
2023-04-22T11:33:09.240Z,4.05
2023-04-22T11:36:17.022Z,5.90
2023-04-22T11:37:51.738Z,5.78
2023-04-22T11:39:24.786Z,3.95
2023-04-22T11:40:58.390Z,9.38
2023-04-22T11:42:30.561Z,4.65
2023-04-22T11:44:03.599Z,5.60
2023-04-22T11:45:38.387Z,6.15
2023-04-22T11:47:12.555Z,7.35
2023-04-22T11:48:45.723Z,3.22
2023-04-22T11:51:57.828Z,5.13
2023-04-22T11:53:30.763Z,5.40
2023-04-22T11:55:02.664Z,6.43
2023-04-22T11:56:38.860Z,3.92
2023-04-22T11:58:13.385Z,3.83
2023-04-22T11:59:58.862Z,5.10
2023-04-22T12:01:31.990Z,4.43
2023-04-22T12:04:38.799Z,6.13
2023-04-22T12:06:11.870Z,5.45
2023-04-22T12:09:19.081Z,5.13
2023-04-22T12:10:53.520Z,5.38
2023-04-22T12:12:26.983Z,4.20
2023-04-22T12:14:06.759Z,5.47
2023-04-22T12:15:44.863Z,5.00
2023-04-22T12:17:19.998Z,5.28
2023-04-22T12:18:54.516Z,5.43
2023-04-22T12:20:33.730Z,5.30
2023-04-22T12:22:06.810Z,6.45
2023-04-22T12:25:19.779Z,5.03
2023-04-22T12:26:52.763Z,5.18
2023-04-22T12:28:27.519Z,5.95
2023-04-22T12:30:00.435Z,6.28
2023-04-22T12:31:33.932Z,4.68
2023-04-22T12:33:07.467Z,5.72
2023-04-22T12:34:39.375Z,6.25
2023-04-22T12:36:12.551Z,7.22
2023-04-22T12:39:19.816Z,6.53
2023-04-22T12:40:52.787Z,6.18
2023-04-22T12:42:25.764Z,6.88
2023-04-22T12:45:31.408Z,5.40
2023-04-22T12:47:04.895Z,6.88
2023-04-22T12:48:38.353Z,5.90
2023-04-22T12:50:11.369Z,5.30
2023-04-22T12:51:44.305Z,6.10
2023-04-22T12:53:17.333Z,6.47
2023-04-22T12:56:24.499Z,5.43
2023-04-22T12:57:57.699Z,5.15
2023-04-22T12:59:30.680Z,4.75
2023-04-22T13:01:03.630Z,6.70
2023-04-22T13:02:36.741Z,6.65
2023-04-22T13:04:09.924Z,7.13
2023-04-22T13:07:17.357Z,6.22
2023-04-22T13:08:50.287Z,6.07
2023-04-22T13:10:26.058Z,7.45
2023-04-22T13:11:59.091Z,5.68
2023-04-22T13:15:06.247Z,6.03
2023-04-22T13:16:39.285Z,6.65
2023-04-22T13:19:45.515Z,7.63
2023-04-22T13:21:18.451Z,6.10
2023-04-22T13:22:53.478Z,4.95
2023-04-22T13:24:26.587Z,6.30
2023-04-22T13:26:01.428Z,7.07
2023-04-22T13:27:34.443Z,6.93
2023-04-22T13:30:44.022Z,8.80
2023-04-22T13:32:16.927Z,6.72
2023-04-22T13:33:49.837Z,6.82
2023-04-22T13:36:55.647Z,4.82
2023-04-22T13:40:00.741Z,4.38
2023-04-22T13:41:35.028Z,5.95
2023-04-22T13:43:10.054Z,5.05
2023-04-22T13:44:42.983Z,7.65
2023-04-22T13:46:16.011Z,6.07
2023-04-22T13:49:21.802Z,6.72
2023-04-22T13:50:54.769Z,6.05
2023-04-22T13:54:01.229Z,3.65
2023-04-22T13:55:34.793Z,6.72
2023-04-22T13:57:09.107Z,4.13
2023-04-22T13:58:43.465Z,4.90
2023-04-22T14:00:16.684Z,6.00
2023-04-22T14:01:49.609Z,3.75
2023-04-22T14:03:22.986Z,4.22
2023-04-22T14:04:56.460Z,4.45
2023-04-22T14:06:39.731Z,5.57
2023-04-22T14:08:12.929Z,5.10
2023-04-22T14:09:49.723Z,5.45
2023-04-22T14:11:26.442Z,4.55
2023-04-22T14:13:00.789Z,3.72
2023-04-22T14:14:33.906Z,6.13
2023-04-22T14:17:43.235Z,4.30
2023-04-22T14:20:50.279Z,5.38
2023-04-22T14:22:23.251Z,6.75
2023-04-22T14:23:56.223Z,5.57
2023-04-22T14:25:29.311Z,4.38
2023-04-22T14:28:37.531Z,4.50
2023-04-22T14:30:11.611Z,3.22
2023-04-22T14:31:44.650Z,4.68
2023-04-22T14:34:50.722Z,7.80
2023-04-22T14:37:56.723Z,5.28
2023-04-22T14:39:29.746Z,4.78
2023-04-22T14:41:03.185Z,6.07
2023-04-22T14:42:36.564Z,6.25
2023-04-22T14:44:11.187Z,4.65
2023-04-22T14:45:44.193Z,4.10
2023-04-22T14:48:49.947Z,8.13
2023-04-22T14:50:22.910Z,5.35
2023-04-22T14:51:56.150Z,5.50
2023-04-22T14:53:29.215Z,6.80
2023-04-22T14:56:48.807Z,5.38
2023-04-22T14:58:22.201Z,5.47
2023-04-22T14:59:56.485Z,5.72
2023-04-22T15:01:29.555Z,4.43
2023-04-22T15:04:36.205Z,6.30
2023-04-22T15:06:09.350Z,3.92
2023-04-22T15:07:42.312Z,6.55
2023-04-22T15:09:15.311Z,5.68
2023-04-22T15:12:21.112Z,4.55
2023-04-22T15:15:28.405Z,5.97
2023-04-22T15:17:01.485Z,5.95
2023-04-22T15:20:09.311Z,5.55
2023-04-22T15:21:42.512Z,5.95
2023-04-22T15:23:15.788Z,4.88
2023-04-22T15:24:48.753Z,6.95
2023-04-22T15:26:21.753Z,4.97
2023-04-22T15:27:56.499Z,4.38
2023-04-22T15:29:29.449Z,6.38
2023-04-22T15:31:04.038Z,7.35
2023-04-22T15:32:39.192Z,5.47
2023-04-22T15:34:12.421Z,4.20
2023-04-22T15:37:20.799Z,6.72
2023-04-22T15:40:28.126Z,3.50
2023-04-22T15:43:34.598Z,7.28
2023-04-22T15:46:42.573Z,5.88
2023-04-22T15:48:15.777Z,5.10
2023-04-22T15:51:22.851Z,4.85
2023-04-22T15:52:55.953Z,4.60
2023-04-22T15:56:01.622Z,5.82
2023-04-22T15:57:35.496Z,5.03
2023-04-22T15:59:08.793Z,6.45
2023-04-22T16:02:16.280Z,5.07
2023-04-22T16:03:50.234Z,4.78
2023-04-22T16:05:24.695Z,5.78
2023-04-22T16:06:59.432Z,6.53
2023-04-22T16:08:32.399Z,5.13
2023-04-22T16:10:06.100Z,5.03
2023-04-22T16:11:39.116Z,6.32
2023-04-22T16:13:12.380Z,5.97
2023-04-22T16:14:45.815Z,6.95
2023-04-22T16:16:18.769Z,5.60
2023-04-22T16:17:53.284Z,5.05
2023-04-22T16:19:26.311Z,7.28
2023-04-22T16:21:00.803Z,6.88
2023-04-22T16:22:33.847Z,7.45
2023-04-22T16:24:07.520Z,7.07
2023-04-22T16:25:40.698Z,5.88
2023-04-22T16:28:49.724Z,8.43
2023-04-22T16:30:23.157Z,6.82
2023-04-22T16:31:57.123Z,6.53
2023-04-22T16:33:31.429Z,7.10
2023-04-22T16:35:04.826Z,8.15
2023-04-22T16:36:37.801Z,8.10
2023-04-22T16:38:10.940Z,7.28
2023-04-22T16:39:44.071Z,7.43
2023-04-22T16:42:49.832Z,6.28
2023-04-22T16:44:23.037Z,6.43
2023-04-22T16:45:56.132Z,5.28
2023-04-22T16:49:03.254Z,10.77
2023-04-22T16:50:36.321Z,9.57
2023-04-22T16:52:09.275Z,4.63
2023-04-22T16:53:42.246Z,6.15
2023-04-22T16:55:15.647Z,5.53
2023-04-22T16:56:48.803Z,7.80
2023-04-22T16:59:54.666Z,7.18
2023-04-22T17:01:28.719Z,8.02
2023-04-22T17:03:01.910Z,7.90
2023-04-22T17:04:36.640Z,8.10
2023-04-22T17:06:09.676Z,7.53
2023-04-22T17:07:42.779Z,7.05
2023-04-22T17:10:49.237Z,5.80
2023-04-22T17:13:55.223Z,6.43
2023-04-22T17:15:28.378Z,6.63
2023-04-22T17:18:34.494Z,9.40
2023-04-22T17:20:09.871Z,8.18
2023-04-22T17:21:43.340Z,6.80
2023-04-22T17:23:16.383Z,7.70
2023-04-22T17:24:49.298Z,5.57
2023-04-22T17:26:22.252Z,7.15
2023-04-22T17:27:55.223Z,7.00
2023-04-22T17:29:28.359Z,5.93
2023-04-22T17:32:34.393Z,6.85
2023-04-22T17:35:41.468Z,6.60
2023-04-22T17:37:14.536Z,7.07
2023-04-22T17:38:47.595Z,6.28
2023-04-22T17:40:21.858Z,6.78
2023-04-22T17:41:54.824Z,6.32
2023-04-22T17:43:28.022Z,5.30
2023-04-22T17:46:33.812Z,6.38
2023-04-22T17:48:06.945Z,6.60
2023-04-22T17:51:14.613Z,4.57
2023-04-22T17:52:47.700Z,4.63
2023-04-22T17:54:20.742Z,4.03
2023-04-22T17:55:53.725Z,6.15
2023-04-22T17:57:28.235Z,5.05
2023-04-22T17:59:01.467Z,5.82
2023-04-22T18:02:09.329Z,7.97
2023-04-22T18:03:42.644Z,8.05
2023-04-22T18:05:15.753Z,5.78
2023-04-22T18:06:50.035Z,5.90
2023-04-22T18:08:22.963Z,8.70
2023-04-22T18:09:56.024Z,9.52
2023-04-22T18:13:01.784Z,7.82
2023-04-22T18:14:35.040Z,8.88
2023-04-22T18:16:08.256Z,8.63
2023-04-22T18:19:13.992Z,10.50
2023-04-22T18:20:47.167Z,8.48
2023-04-22T18:23:54.368Z,8.30
2023-04-22T18:25:28.028Z,8.82
2023-04-22T18:27:01.354Z,10.40
2023-04-22T18:28:34.460Z,8.13
2023-04-22T18:30:10.351Z,7.25
2023-04-22T18:31:45.643Z,8.48
2023-04-22T18:33:19.253Z,8.40
2023-04-22T18:34:56.987Z,8.50
2023-04-22T18:36:33.346Z,7.10
2023-04-22T18:38:07.900Z,8.43
2023-04-22T18:39:50.283Z,9.75
2023-04-22T18:41:25.254Z,7.15
2023-04-22T18:42:58.749Z,9.00
2023-04-22T18:44:31.714Z,10.10
2023-04-22T18:46:05.033Z,8.80
2023-04-22T18:47:38.173Z,10.20
2023-04-22T18:49:11.299Z,7.45
2023-04-22T18:50:44.456Z,11.00
2023-04-22T18:53:52.336Z,6.60
2023-04-22T18:55:28.076Z,6.93
2023-04-22T18:57:02.158Z,6.22
2023-04-22T18:58:35.507Z,7.28
2023-04-22T19:00:09.936Z,8.13
2023-04-22T19:01:42.968Z,6.60
2023-04-22T19:03:16.307Z,8.18
2023-04-22T19:04:48.786Z,7.25
2023-04-22T19:06:21.928Z,7.43
2023-04-22T19:07:54.811Z,6.75
2023-04-22T19:09:29.255Z,6.18
2023-04-22T19:11:02.862Z,8.40
2023-04-22T19:12:35.918Z,8.75
2023-04-22T19:14:09.138Z,7.68
2023-04-22T19:15:42.238Z,8.30
2023-04-22T19:17:15.360Z,7.70
2023-04-22T19:18:50.759Z,7.72
2023-04-22T19:20:24.257Z,9.00
2023-04-22T19:21:57.348Z,7.25
2023-04-22T19:23:30.567Z,7.05
2023-04-22T19:26:39.443Z,9.52
2023-04-22T19:28:13.178Z,8.23
2023-04-22T19:29:51.175Z,7.50
2023-04-22T19:31:25.174Z,8.00
2023-04-22T19:32:58.828Z,7.60
2023-04-22T19:34:32.898Z,7.72
2023-04-22T19:36:06.380Z,9.60
2023-04-22T19:37:39.361Z,7.03
2023-04-22T19:39:12.440Z,6.50
2023-04-22T19:40:47.352Z,9.27
2023-04-22T19:42:20.972Z,11.43
2023-04-22T19:43:55.441Z,7.35
2023-04-22T19:45:29.850Z,7.05
2023-04-22T19:47:02.796Z,5.72
2023-04-22T19:48:37.131Z,6.93
2023-04-22T19:50:11.259Z,7.25
2023-04-22T19:51:45.628Z,7.28
2023-04-22T19:53:19.995Z,6.15
2023-04-22T19:54:56.141Z,7.43
2023-04-22T19:56:30.986Z,5.47
2023-04-22T19:58:04.233Z,6.70
2023-04-22T20:01:10.344Z,6.35
2023-04-22T20:02:43.882Z,5.28
2023-04-22T20:04:17.577Z,6.18
2023-04-22T20:05:51.338Z,5.57
2023-04-22T20:07:24.725Z,7.95
2023-04-22T20:08:58.950Z,8.27
2023-04-22T20:10:32.263Z,7.07
2023-04-22T20:12:07.366Z,7.07
2023-04-22T20:13:42.211Z,6.38
2023-04-22T20:15:15.676Z,7.57
2023-04-22T20:16:49.888Z,8.40
2023-04-22T20:18:23.190Z,7.25
2023-04-22T20:21:30.410Z,6.45
2023-04-22T20:23:09.791Z,6.38
2023-04-22T20:24:43.682Z,7.95
2023-04-22T20:26:19.893Z,9.88
2023-04-22T20:27:54.947Z,7.28
2023-04-22T20:29:27.251Z,6.10
2023-04-22T20:31:00.395Z,6.63
2023-04-22T20:32:33.689Z,7.70
2023-04-22T20:34:07.203Z,7.38
2023-04-22T20:35:40.998Z,8.20
2023-04-22T20:37:14.602Z,10.02
2023-04-22T20:38:51.008Z,9.82
2023-04-22T20:40:24.980Z,9.18
2023-04-22T20:41:58.400Z,7.55
2023-04-22T20:43:33.011Z,7.30
2023-04-22T20:45:07.457Z,8.95
2023-04-22T20:46:40.372Z,6.65
2023-04-22T20:48:13.585Z,6.97
2023-04-22T20:51:19.568Z,8.15
2023-04-22T20:52:53.242Z,8.27
2023-04-22T20:54:43.449Z,6.75
2023-04-22T20:56:16.534Z,9.93
2023-04-22T20:57:49.587Z,9.27
2023-04-22T20:59:23.990Z,10.60
2023-04-22T21:00:57.271Z,9.15
2023-04-22T21:04:05.303Z,6.70
2023-04-22T21:05:41.312Z,7.25
2023-04-22T21:07:15.861Z,7.38
2023-04-22T21:08:50.470Z,10.35
2023-04-22T21:10:24.152Z,7.90
2023-04-22T21:11:57.663Z,6.68
2023-04-22T21:13:31.030Z,6.72
2023-04-22T21:15:07.168Z,6.72
2023-04-22T21:16:41.975Z,8.43
2023-04-22T21:18:16.127Z,6.63
2023-04-22T21:19:51.613Z,7.38
2023-04-22T21:21:27.369Z,8.10
2023-04-22T21:23:01.168Z,9.13
2023-04-22T21:24:35.638Z,7.20
2023-04-22T21:26:10.773Z,8.88
2023-04-22T21:27:44.073Z,7.80
2023-04-22T21:30:51.970Z,7.80
2023-04-22T21:32:24.947Z,6.45
2023-04-22T21:34:00.464Z,6.20
2023-04-22T21:35:33.450Z,7.97
2023-04-22T21:37:07.804Z,6.50
2023-04-22T21:38:40.752Z,7.00
2023-04-22T21:40:13.864Z,8.25
2023-04-22T21:41:46.877Z,10.50
2023-04-22T21:43:20.147Z,8.02
2023-04-22T21:46:27.811Z,7.43
2023-04-22T21:47:59.998Z,7.38
2023-04-22T21:49:33.018Z,6.90
2023-04-22T21:51:06.060Z,6.20
2023-04-22T21:52:38.392Z,7.45
2023-04-22T21:54:12.188Z,8.35
2023-04-22T21:55:45.758Z,8.60
2023-04-22T21:57:18.963Z,7.15
2023-04-22T22:00:25.122Z,10.10
2023-04-22T22:01:59.501Z,8.90
2023-04-22T22:03:31.681Z,7.38
2023-04-22T22:05:05.154Z,9.13
2023-04-22T22:06:37.250Z,7.53
2023-04-22T22:08:10.448Z,10.07
2023-04-22T22:11:29.814Z,9.15
2023-04-22T22:13:03.631Z,8.18
2023-04-22T22:14:36.804Z,8.02
2023-04-22T22:16:08.835Z,6.93
2023-04-22T22:17:43.343Z,8.30
2023-04-22T22:19:16.957Z,7.22
2023-04-22T22:20:50.142Z,7.78
2023-04-22T22:22:22.105Z,7.75
2023-04-22T22:23:55.196Z,6.28
2023-04-22T22:25:27.339Z,6.93
2023-04-22T22:27:01.108Z,7.97
2023-04-22T22:28:34.043Z,9.43
2023-04-22T22:30:08.811Z,7.70
2023-04-22T22:31:41.887Z,8.45
2023-04-22T22:33:16.835Z,8.30
2023-04-22T22:34:49.864Z,7.47
2023-04-22T22:36:23.571Z,8.50
2023-04-22T22:37:56.552Z,9.93
2023-04-22T22:39:28.498Z,7.90
2023-04-22T22:41:01.530Z,7.20
2023-04-22T22:42:34.419Z,6.75
2023-04-22T22:44:07.536Z,7.88
2023-04-22T22:45:40.804Z,6.57
2023-04-22T22:47:12.899Z,7.80
2023-04-22T22:48:47.917Z,8.88
2023-04-22T22:50:21.389Z,9.90
2023-04-22T22:51:53.548Z,5.95
2023-04-22T22:53:26.855Z,6.82
2023-04-22T22:56:32.595Z,7.30
2023-04-22T22:58:05.608Z,7.47
2023-04-22T22:59:39.237Z,8.45